createdAt,value
2022-08-26T00:02:21.615Z,94579.66
2022-08-26T00:05:05.076Z,94574.47
2022-08-26T00:07:48.435Z,94577.59
2022-08-26T00:10:32.270Z,94575.47
2022-08-26T00:13:15.860Z,94573.66
2022-08-26T00:16:05.456Z,94568.44
2022-08-26T00:18:48.614Z,94569.50
2022-08-26T00:21:32.455Z,94568.41
2022-08-26T00:24:15.532Z,94567.88
2022-08-26T00:26:58.635Z,94565.19
2022-08-26T00:29:41.754Z,94567.63
2022-08-26T00:32:26.238Z,94561.53
2022-08-26T00:35:10.534Z,94559.69
2022-08-26T00:37:54.165Z,94561.50
2022-08-26T00:40:40.794Z,94561.97
2022-08-26T00:43:25.197Z,94563.03
2022-08-26T00:46:13.544Z,94561.91
2022-08-26T00:49:04.333Z,94561.44
2022-08-26T00:51:58.436Z,94559.28
2022-08-26T00:54:47.025Z,94559.84
2022-08-26T00:57:30.334Z,94564.59
2022-08-26T01:00:18.052Z,94558.31
2022-08-26T01:03:03.175Z,94557.81
2022-08-26T01:05:51.173Z,94555.13
2022-08-26T01:08:35.395Z,94556.72
2022-08-26T01:11:18.540Z,94552.44
2022-08-26T01:14:03.965Z,94548.28
2022-08-26T01:16:47.244Z,94556.94
2022-08-26T01:19:37.619Z,94556.72
2022-08-26T01:22:28.784Z,94541.03
2022-08-26T01:25:14.576Z,94549.19
2022-08-26T01:28:00.098Z,94559.41
2022-08-26T01:30:44.645Z,94543.69
2022-08-26T01:33:39.956Z,94547.84
2022-08-26T01:36:25.593Z,94554.69
2022-08-26T01:39:09.576Z,94552.09
2022-08-26T01:41:58.027Z,94551.91
2022-08-26T01:44:50.298Z,94554.75
2022-08-26T01:47:41.497Z,94558.97
2022-08-26T01:50:30.184Z,94566.31
2022-08-26T01:53:17.950Z,94554.72
2022-08-26T01:56:03.830Z,94553.94
2022-08-26T01:58:52.713Z,94551.41
2022-08-26T02:01:36.409Z,94550.44
2022-08-26T02:04:25.499Z,94563.44
2022-08-26T02:07:10.833Z,94557.41
2022-08-26T02:09:56.930Z,94553.19
2022-08-26T02:12:40.864Z,94552.66
2022-08-26T02:15:25.606Z,94553.66
2022-08-26T02:18:14.108Z,94545.72
2022-08-26T02:20:58.222Z,94550.66
2022-08-26T02:23:41.753Z,94544.94
2022-08-26T02:26:27.188Z,94544.72
2022-08-26T02:29:17.686Z,94553.63
2022-08-26T02:32:02.383Z,94545.94
2022-08-26T02:34:47.101Z,94545.41
2022-08-26T02:37:32.082Z,94554.34
2022-08-26T02:40:19.402Z,94549.09
2022-08-26T02:43:08.563Z,94548.88
2022-08-26T02:45:52.313Z,94543.06
2022-08-26T02:48:36.936Z,94546.94
2022-08-26T02:51:20.042Z,94550.13
2022-08-26T02:54:03.262Z,94556.72
2022-08-26T02:56:47.496Z,94553.47
2022-08-26T02:59:31.440Z,94554.63
2022-08-26T03:02:14.595Z,94547.75
2022-08-26T03:05:02.305Z,94549.34
2022-08-26T03:07:45.572Z,94557.16
2022-08-26T03:10:29.874Z,94549.53
2022-08-26T03:13:13.076Z,94555.84
2022-08-26T03:15:56.611Z,94561.91
2022-08-26T03:18:39.773Z,94563.75
2022-08-26T03:21:24.266Z,94564.09
2022-08-26T03:24:07.749Z,94559.84
2022-08-26T03:26:52.928Z,94558.81
2022-08-26T03:29:53.734Z,94560.41
2022-08-26T03:32:36.946Z,94562.56
2022-08-26T03:35:21.854Z,94558.44
2022-08-26T03:38:08.330Z,94556.31
2022-08-26T03:40:52.462Z,94555.28
2022-08-26T03:43:35.743Z,94555.53
2022-08-26T03:46:21.682Z,94552.41
2022-08-26T03:49:06.380Z,94548.50
2022-08-26T03:51:49.543Z,94553.72
2022-08-26T03:54:34.841Z,94554.75
2022-08-26T03:57:18.454Z,94554.16
2022-08-26T04:00:02.684Z,94557.50
2022-08-26T04:02:46.958Z,94552.28
2022-08-26T04:05:30.097Z,94556.72
2022-08-26T04:08:13.164Z,94551.97
2022-08-26T04:10:57.984Z,94547.75
2022-08-26T04:13:41.754Z,94551.44
2022-08-26T04:16:25.185Z,94551.69
2022-08-26T04:19:12.153Z,94546.72
2022-08-26T04:21:56.076Z,94545.69
2022-08-26T04:24:40.346Z,94538.75
2022-08-26T04:27:24.834Z,94547.69
2022-08-26T04:30:10.256Z,94548.75
2022-08-26T04:32:53.322Z,94549.13
2022-08-26T04:35:37.175Z,94547.22
2022-08-26T04:38:20.990Z,94545.28
2022-08-26T04:41:05.656Z,94548.50
2022-08-26T04:44:01.926Z,94550.03
2022-08-26T04:46:45.344Z,94560.34
2022-08-26T04:49:28.804Z,94557.22
2022-08-26T04:52:18.877Z,94554.88
2022-08-26T04:55:02.018Z,94555.50
2022-08-26T04:57:45.972Z,94546.31
2022-08-26T05:00:30.411Z,94557.78
2022-08-26T05:03:14.114Z,94553.50
2022-08-26T05:05:57.278Z,94560.91
2022-08-26T05:08:41.121Z,94560.22
2022-08-26T05:11:24.575Z,94568.91
2022-08-26T05:14:08.041Z,94566.75
2022-08-26T05:16:54.073Z,94565.19
2022-08-26T05:19:37.484Z,94559.66
2022-08-26T05:22:26.427Z,94550.00
2022-08-26T05:25:09.728Z,94567.47
2022-08-26T05:27:52.795Z,94572.22
2022-08-26T05:30:36.039Z,94575.75
2022-08-26T05:33:21.453Z,94577.53
2022-08-26T05:36:09.358Z,94573.09
2022-08-26T05:38:52.789Z,94581.31
2022-08-26T05:41:38.421Z,94580.81
2022-08-26T05:44:22.384Z,94585.53
2022-08-26T05:47:05.631Z,94581.84
2022-08-26T05:49:51.622Z,94580.25
2022-08-26T05:52:35.233Z,94580.81
2022-08-26T05:55:18.528Z,94573.00
2022-08-26T05:58:02.802Z,94578.09
2022-08-26T06:00:46.345Z,94574.66
2022-08-26T06:03:29.900Z,94577.03
2022-08-26T06:06:20.100Z,94587.38
2022-08-26T06:09:09.468Z,94585.50
2022-08-26T06:11:58.938Z,94577.44
2022-08-26T06:14:42.009Z,94589.53
2022-08-26T06:17:26.105Z,94584.09
2022-08-26T06:20:10.332Z,94589.47
2022-08-26T06:23:12.386Z,94588.31
2022-08-26T06:25:55.536Z,94602.00
2022-08-26T06:28:40.363Z,94598.88
2022-08-26T06:31:27.806Z,94599.09
2022-08-26T06:34:12.687Z,94597.84
2022-08-26T06:36:57.181Z,94596.94
2022-08-26T06:39:41.696Z,94608.97
2022-08-26T06:42:24.813Z,94608.75
2022-08-26T06:45:08.868Z,94595.88
2022-08-26T06:47:52.502Z,94607.31
2022-08-26T06:50:36.319Z,94609.56
2022-08-26T06:53:19.399Z,94614.16
2022-08-26T06:56:05.845Z,94609.16
2022-08-26T06:58:49.355Z,94607.50
2022-08-26T07:01:35.985Z,94609.34
2022-08-26T07:04:21.996Z,94605.63
2022-08-26T07:07:05.607Z,94605.66
2022-08-26T07:09:52.869Z,94603.38
2022-08-26T07:12:38.990Z,94603.59
2022-08-26T07:15:23.909Z,94597.59
2022-08-26T07:18:14.409Z,94600.09
2022-08-26T07:20:57.519Z,94596.34
2022-08-26T07:23:41.273Z,94609.69
2022-08-26T07:26:29.140Z,94609.19
2022-08-26T07:29:15.040Z,94608.34
2022-08-26T07:31:58.263Z,94608.34
2022-08-26T07:34:43.608Z,94604.63
2022-08-26T07:37:26.743Z,94607.25
2022-08-26T07:40:23.295Z,94607.91
2022-08-26T07:43:06.627Z,94616.75
2022-08-26T07:45:51.536Z,94608.00
2022-08-26T07:48:35.559Z,94608.50
2022-08-26T07:51:21.234Z,94608.88
2022-08-26T07:54:05.609Z,94600.72
2022-08-26T07:56:49.917Z,94605.25
2022-08-26T07:59:35.051Z,94612.66
2022-08-26T08:02:19.541Z,94619.91
2022-08-26T08:05:02.652Z,94612.44
2022-08-26T08:07:45.915Z,94620.38
2022-08-26T08:10:36.529Z,94612.41
2022-08-26T08:13:19.851Z,94611.22
2022-08-26T08:16:03.741Z,94611.13
2022-08-26T08:18:48.605Z,94607.69
2022-08-26T08:21:33.508Z,94610.41
2022-08-26T08:24:16.769Z,94610.78
2022-08-26T08:26:59.913Z,94610.66
2022-08-26T08:29:42.981Z,94611.13
2022-08-26T08:32:26.123Z,94607.78
2022-08-26T08:35:12.643Z,94604.25
2022-08-26T08:37:58.192Z,94610.06
2022-08-26T08:40:46.972Z,94598.44
2022-08-26T08:43:41.018Z,94590.16
2022-08-26T08:46:24.583Z,94596.56
2022-08-26T08:49:11.042Z,94596.53
2022-08-26T08:52:01.687Z,94586.16
2022-08-26T08:54:44.862Z,94581.84
2022-08-26T08:57:39.213Z,94590.81
2022-08-26T09:00:30.417Z,94584.94
2022-08-26T09:03:33.745Z,94587.25
2022-08-26T09:06:20.575Z,94591.38
2022-08-26T09:09:08.140Z,94592.69
2022-08-26T09:11:51.717Z,94581.09
2022-08-26T09:14:34.927Z,94567.97
2022-08-26T09:17:31.417Z,94574.78
2022-08-26T09:20:22.117Z,94574.84
2022-08-26T09:23:05.427Z,94566.78
2022-08-26T09:25:55.615Z,94567.72
2022-08-26T09:28:43.656Z,94566.69
2022-08-26T09:31:29.068Z,94559.97
2022-08-26T09:34:17.801Z,94567.03
2022-08-26T09:37:04.670Z,94543.13
2022-08-26T09:39:48.046Z,94559.50
2022-08-26T09:42:32.847Z,94549.84
2022-08-26T09:45:17.119Z,94560.88
2022-08-26T09:48:01.351Z,94551.38
2022-08-26T09:50:55.255Z,94554.81
2022-08-26T09:53:53.519Z,94558.28
2022-08-26T09:56:38.687Z,94549.72
2022-08-26T09:59:32.022Z,94552.56
2022-08-26T10:02:33.829Z,94557.53
2022-08-26T10:05:20.128Z,94557.69
2022-08-26T10:08:18.703Z,94544.78
2022-08-26T10:11:05.261Z,94540.78
2022-08-26T10:13:56.419Z,94542.84
2022-08-26T10:16:48.520Z,94537.78
2022-08-26T10:19:41.654Z,94552.31
2022-08-26T10:22:46.481Z,94537.69
2022-08-26T10:25:36.046Z,94536.69
2022-08-26T10:28:28.262Z,94529.06
2022-08-26T10:31:27.530Z,94536.50
2022-08-26T10:34:14.221Z,94532.22
2022-08-26T10:37:14.383Z,94533.47
2022-08-26T10:40:03.831Z,94532.84
2022-08-26T10:42:54.449Z,94531.53
2022-08-26T10:45:43.906Z,94527.59
2022-08-26T10:48:35.384Z,94526.88
2022-08-26T10:51:26.691Z,94516.47
2022-08-26T10:54:14.609Z,94514.06
2022-08-26T10:57:03.584Z,94529.03
2022-08-26T11:00:00.176Z,94521.72
2022-08-26T11:02:48.341Z,94519.13
2022-08-26T11:05:31.611Z,94515.00
2022-08-26T11:08:31.742Z,94508.16
2022-08-26T11:11:47.387Z,94515.56
2022-08-26T11:14:58.492Z,94513.84
2022-08-26T11:17:58.491Z,94510.09
2022-08-26T11:20:45.981Z,94513.75
2022-08-26T11:23:50.465Z,94511.94
2022-08-26T11:26:56.072Z,94501.91
2022-08-26T11:30:02.251Z,94511.41
2022-08-26T11:32:53.637Z,94496.56
2022-08-26T11:35:51.131Z,94497.34
2022-08-26T11:38:35.723Z,94496.81
2022-08-26T11:41:29.158Z,94489.53
2022-08-26T11:44:13.391Z,94499.81
2022-08-26T11:46:59.811Z,94502.31
2022-08-26T11:49:43.076Z,94491.47
2022-08-26T11:52:26.547Z,94484.22
2022-08-26T11:55:11.617Z,94480.91
2022-08-26T11:58:00.897Z,94482.44
2022-08-26T12:00:53.108Z,94483.97
2022-08-26T12:03:43.252Z,94475.69
2022-08-26T12:06:29.431Z,94465.25
2022-08-26T12:09:16.009Z,94468.50
2022-08-26T12:12:14.465Z,94464.59
2022-08-26T12:15:16.221Z,94456.63
2022-08-26T12:18:20.539Z,94454.13
2022-08-26T12:21:16.149Z,94462.41
2022-08-26T12:24:01.605Z,94457.75
2022-08-26T12:26:44.872Z,94461.78
2022-08-26T12:29:29.404Z,94454.94
2022-08-26T12:32:17.637Z,94434.78
2022-08-26T12:35:09.679Z,94441.81
2022-08-26T12:37:55.893Z,94443.09
2022-08-26T12:40:43.905Z,94431.50
2022-08-26T12:43:42.401Z,94436.78
2022-08-26T12:46:28.602Z,94447.53
2022-08-26T12:49:13.350Z,94436.28
2022-08-26T12:51:56.714Z,94433.75
2022-08-26T12:54:57.584Z,94442.31
2022-08-26T12:57:40.722Z,94430.75
2022-08-26T13:00:28.292Z,94439.25
2022-08-26T13:03:38.506Z,94441.03
2022-08-26T13:06:30.079Z,94433.00
2022-08-26T13:09:33.681Z,94437.25
2022-08-26T13:12:29.141Z,94426.22
2022-08-26T13:15:12.340Z,94432.28
2022-08-26T13:17:55.478Z,94418.97
2022-08-26T13:20:44.927Z,94429.28
2022-08-26T13:23:30.236Z,94435.00
2022-08-26T13:26:13.390Z,94432.78
2022-08-26T13:29:01.618Z,94434.66
2022-08-26T13:31:46.918Z,94428.59
2022-08-26T13:34:32.472Z,94426.38
2022-08-26T13:37:15.798Z,94427.31
2022-08-26T13:40:00.449Z,94438.22
2022-08-26T13:42:49.776Z,94422.38
2022-08-26T13:45:33.284Z,94422.53
2022-08-26T13:48:21.569Z,94423.16
2022-08-26T13:51:08.990Z,94422.03
2022-08-26T13:53:52.782Z,94425.63
2022-08-26T13:56:41.546Z,94429.75
2022-08-26T13:59:24.659Z,94417.34
2022-08-26T14:02:08.601Z,94430.59
2022-08-26T14:04:53.974Z,94433.81
2022-08-26T14:07:37.352Z,94430.97
2022-08-26T14:10:23.518Z,94417.84
2022-08-26T14:13:08.213Z,94428.19
2022-08-26T14:15:51.870Z,94433.13
2022-08-26T14:18:41.640Z,94422.53
2022-08-26T14:21:26.753Z,94428.53
2022-08-26T14:24:09.943Z,94421.31
2022-08-26T14:26:53.786Z,94422.16
2022-08-26T14:29:38.410Z,94420.16
2022-08-26T14:32:25.716Z,94423.03
2022-08-26T14:35:11.035Z,94418.09
2022-08-26T14:37:54.456Z,94417.22
2022-08-26T14:40:40.274Z,94418.41
2022-08-26T14:43:23.445Z,94426.47
2022-08-26T14:46:08.220Z,94417.75
2022-08-26T14:48:51.454Z,94411.31
2022-08-26T14:51:37.130Z,94415.09
2022-08-26T14:54:21.431Z,94426.66
2022-08-26T14:57:08.016Z,94430.09
2022-08-26T14:59:51.481Z,94423.34
2022-08-26T15:02:37.771Z,94426.25
2022-08-26T15:05:21.368Z,94426.25
2022-08-26T15:08:10.675Z,94413.81
2022-08-26T15:10:54.406Z,94415.59
2022-08-26T15:13:38.042Z,94420.47
2022-08-26T15:16:21.949Z,94419.94
2022-08-26T15:19:07.100Z,94419.28
2022-08-26T15:21:51.035Z,94416.03
2022-08-26T15:24:37.101Z,94415.84
2022-08-26T15:27:20.378Z,94414.59
2022-08-26T15:30:04.025Z,94415.63
2022-08-26T15:32:47.272Z,94420.72
2022-08-26T15:35:32.994Z,94419.81
2022-08-26T15:38:21.608Z,94409.63
2022-08-26T15:41:06.522Z,94424.47
2022-08-26T15:43:49.846Z,94419.59
2022-08-26T15:46:33.657Z,94423.03
2022-08-26T15:49:19.503Z,94421.59
2022-08-26T15:52:05.495Z,94413.38
2022-08-26T15:54:48.774Z,94410.97
2022-08-26T15:57:33.747Z,94410.41
2022-08-26T16:00:18.296Z,94417.59
2022-08-26T16:03:01.519Z,94414.78
2022-08-26T16:05:45.284Z,94413.19
2022-08-26T16:08:30.146Z,94416.06
2022-08-26T16:11:20.086Z,94416.94
2022-08-26T16:14:04.632Z,94409.28
2022-08-26T16:16:48.250Z,94416.41
2022-08-26T16:19:31.487Z,94404.88
2022-08-26T16:22:14.628Z,94410.97
2022-08-26T16:25:00.073Z,94414.22
2022-08-26T16:27:43.200Z,94414.59
2022-08-26T16:30:28.286Z,94411.22
2022-08-26T16:33:11.729Z,94404.81
2022-08-26T16:35:57.551Z,94414.69
2022-08-26T16:38:53.463Z,94413.00
2022-08-26T16:41:38.177Z,94419.75
2022-08-26T16:44:22.280Z,94414.34
2022-08-26T16:47:05.651Z,94426.38
2022-08-26T16:49:48.824Z,94414.41
2022-08-26T16:52:32.004Z,94417.56
2022-08-26T16:55:17.812Z,94420.88
2022-08-26T16:58:02.940Z,94420.75
2022-08-26T17:00:46.422Z,94418.59
2022-08-26T17:03:29.588Z,94415.31
2022-08-26T17:06:13.270Z,94419.72
2022-08-26T17:08:56.610Z,94412.88
2022-08-26T17:11:40.189Z,94416.94
2022-08-26T17:14:25.054Z,94421.03
2022-08-26T17:17:09.018Z,94422.88
2022-08-26T17:19:52.447Z,94428.34
2022-08-26T17:22:35.774Z,94428.94
2022-08-26T17:25:21.364Z,94427.69
2022-08-26T17:28:05.542Z,94433.47
2022-08-26T17:30:58.645Z,94437.97
2022-08-26T17:33:42.162Z,94435.47
2022-08-26T17:36:27.813Z,94438.88
2022-08-26T17:39:11.945Z,94443.88
2022-08-26T17:41:55.105Z,94441.47
2022-08-26T17:44:38.398Z,94449.56
2022-08-26T17:47:23.013Z,94453.44
2022-08-26T17:50:09.254Z,94449.34
2022-08-26T17:52:52.804Z,94452.41
2022-08-26T17:55:36.026Z,94458.91
2022-08-26T17:58:23.254Z,94459.00
2022-08-26T18:01:07.880Z,94463.22
2022-08-26T18:03:54.699Z,94461.50
2022-08-26T18:06:41.026Z,94470.72
2022-08-26T18:09:24.143Z,94463.75
2022-08-26T18:12:07.948Z,94475.63
2022-08-26T18:14:51.061Z,94476.34
2022-08-26T18:17:34.607Z,94472.41
2022-08-26T18:20:20.432Z,94477.47
2022-08-26T18:23:03.609Z,94478.69
2022-08-26T18:25:46.825Z,94480.44
2022-08-26T18:28:29.993Z,94483.00
2022-08-26T18:31:16.108Z,94484.97
2022-08-26T18:34:00.922Z,94495.16
2022-08-26T18:36:45.593Z,94490.09
2022-08-26T18:39:28.880Z,94491.34
2022-08-26T18:42:12.457Z,94489.13
2022-08-26T18:44:55.659Z,94494.13
2022-08-26T18:47:39.320Z,94494.41
2022-08-26T18:50:22.684Z,94494.41
2022-08-26T18:53:07.395Z,94504.19
2022-08-26T18:55:50.565Z,94495.59
2022-08-26T18:58:33.808Z,94502.03
2022-08-26T19:01:18.311Z,94503.16
2022-08-26T19:04:03.635Z,94497.88
2022-08-26T19:06:48.443Z,94504.84
2022-08-26T19:09:33.377Z,94500.63
2022-08-26T19:12:16.902Z,94501.69
2022-08-26T19:15:01.664Z,94503.94
2022-08-26T19:17:44.767Z,94500.81
2022-08-26T19:20:28.037Z,94496.69
2022-08-26T19:23:30.492Z,94503.53
2022-08-26T19:26:16.361Z,94503.72
2022-08-26T19:29:00.384Z,94508.69
2022-08-26T19:31:43.928Z,94512.03
2022-08-26T19:34:28.008Z,94513.09
2022-08-26T19:37:11.427Z,94512.63
2022-08-26T19:39:54.816Z,94510.28
2022-08-26T19:42:39.431Z,94513.28
2022-08-26T19:45:25.221Z,94502.63
2022-08-26T19:48:08.772Z,94509.75
2022-08-26T19:50:52.201Z,94506.69
2022-08-26T19:53:35.292Z,94503.84
2022-08-26T19:56:18.679Z,94503.72
2022-08-26T19:59:04.025Z,94502.16
2022-08-26T20:01:47.279Z,94507.72
2022-08-26T20:04:45.507Z,94513.56
2022-08-26T20:07:28.791Z,94512.78
2022-08-26T20:10:18.568Z,94510.97
2022-08-26T20:13:01.694Z,94505.00
2022-08-26T20:15:46.292Z,94510.91
2022-08-26T20:18:46.852Z,94507.22
2022-08-26T20:21:34.303Z,94514.19
2022-08-26T20:24:19.655Z,94507.34
2022-08-26T20:27:07.501Z,94519.03
2022-08-26T20:29:51.184Z,94514.78
2022-08-26T20:32:36.470Z,94506.94
2022-08-26T20:35:20.336Z,94505.38
2022-08-26T20:38:03.598Z,94505.97
2022-08-26T20:40:46.904Z,94509.66
2022-08-26T20:43:30.877Z,94512.16
2022-08-26T20:46:18.035Z,94515.06
2022-08-26T20:49:05.936Z,94517.78
2022-08-26T20:51:52.060Z,94520.84
2022-08-26T20:54:35.205Z,94518.56
2022-08-26T20:57:19.139Z,94522.44
2022-08-26T21:00:02.324Z,94530.34
2022-08-26T21:02:46.362Z,94518.91
2022-08-26T21:05:31.322Z,94522.59
2022-08-26T21:08:16.906Z,94519.59
2022-08-26T21:11:00.177Z,94522.84
2022-08-26T21:14:03.938Z,94527.66
2022-08-26T21:16:48.091Z,94525.09
2022-08-26T21:19:31.428Z,94523.50
2022-08-26T21:22:16.037Z,94521.38
2022-08-26T21:24:59.235Z,94525.63
2022-08-26T21:27:42.363Z,94525.13
2022-08-26T21:30:25.457Z,94524.50
2022-08-26T21:33:08.619Z,94521.50
2022-08-26T21:35:55.462Z,94528.94
2022-08-26T21:38:41.114Z,94538.19
2022-08-26T21:41:24.315Z,94538.97
2022-08-26T21:44:07.675Z,94535.81
2022-08-26T21:46:50.831Z,94544.78
2022-08-26T21:49:33.988Z,94537.28
2022-08-26T21:52:17.394Z,94547.00
2022-08-26T21:55:03.371Z,94551.16
2022-08-26T21:57:51.953Z,94549.91
2022-08-26T22:00:35.148Z,94542.19
2022-08-26T22:03:18.946Z,94546.91
2022-08-26T22:06:02.306Z,94542.72
2022-08-26T22:08:49.192Z,94544.53
2022-08-26T22:11:33.807Z,94546.28
2022-08-26T22:14:18.141Z,94544.94
2022-08-26T22:17:02.638Z,94542.91
2022-08-26T22:19:46.721Z,94541.63
2022-08-26T22:22:29.963Z,94550.84
2022-08-26T22:25:13.572Z,94541.63
2022-08-26T22:27:58.161Z,94545.38
2022-08-26T22:30:43.027Z,94550.91
2022-08-26T22:33:26.848Z,94537.50
2022-08-26T22:36:16.975Z,94546.09
2022-08-26T22:39:00.741Z,94547.69
2022-08-26T22:41:45.090Z,94545.31
2022-08-26T22:44:29.631Z,94560.66
2022-08-26T22:47:12.811Z,94562.50
2022-08-26T22:49:56.003Z,94555.44
2022-08-26T22:52:39.247Z,94556.00
2022-08-26T22:55:22.446Z,94554.19
2022-08-26T22:58:06.387Z,94556.53
2022-08-26T23:00:51.154Z,94559.69
2022-08-26T23:03:37.550Z,94559.75
2022-08-26T23:06:20.685Z,94557.66
2022-08-26T23:09:03.851Z,94556.91
2022-08-26T23:11:48.538Z,94546.16
2022-08-26T23:14:33.374Z,94550.91
2022-08-26T23:17:18.209Z,94550.13
2022-08-26T23:20:01.676Z,94544.41
2022-08-26T23:22:46.199Z,94556.66
2022-08-26T23:25:32.431Z,94558.31
2022-08-26T23:28:15.592Z,94570.94
2022-08-26T23:30:59.309Z,94559.94
2022-08-26T23:34:01.524Z,94560.94
2022-08-26T23:36:46.277Z,94553.66
2022-08-26T23:39:30.306Z,94556.78
2022-08-26T23:42:13.817Z,94558.41
2022-08-26T23:44:57.008Z,94568.41
2022-08-26T23:47:41.239Z,94565.84
2022-08-26T23:50:50.162Z,94559.50
2022-08-26T23:53:32.249Z,94560.56
2022-08-26T23:56:16.821Z,94558.97
2022-08-26T23:59:00.789Z,94560.56
